Time;durP1;ratioP1;P1;durP2;ratioP2;P2;SDS_P1;SDS_P2;PMS_P1;PMS_P2;Temp;Humidity;BMP_temperature;BMP_pressure;BME280_temperature;BME280_humidity;BME280_pressure;Samples;Min_cycle;Max_cycle;Signal;HPM_P1;HPM_P2
2022/01/15 00:01:13;;;;;;;0.30;0.30;;;0.10;99.90;;;;;;4916872;29;20492;-79
2022/01/15 00:03:40;;;;;;;0.50;0.50;;;0.00;99.90;;;;;;4916849;29;20499;-80
2022/01/15 00:06:07;;;;;;;0.30;0.30;;;0.00;99.90;;;;;;4916619;29;20455;-80
2022/01/15 00:08:34;;;;;;;1.27;0.60;;;0.00;99.90;;;;;;4916863;29;20482;-80
2022/01/15 00:11:00;;;;;;;0.90;0.50;;;0.10;99.90;;;;;;4916913;29;20423;-80
2022/01/15 00:13:30;;;;;;;0.30;0.20;;;0.10;99.90;;;;;;4916574;29;20457;-80
2022/01/15 00:16:06;;;;;;;0.63;0.63;;;0.10;99.90;;;;;;4917665;29;20547;-80
2022/01/15 00:18:43;;;;;;;0.30;0.30;;;0.10;99.90;;;;;;4917329;29;20931;-80
2022/01/15 00:21:10;;;;;;;0.60;0.60;;;0.10;99.90;;;;;;4916658;29;20484;-80
2022/01/15 00:23:37;;;;;;;0.50;0.50;;;0.10;99.90;;;;;;4916409;29;20475;-80
2022/01/15 00:26:04;;;;;;;0.30;0.30;;;0.10;99.90;;;;;;4916484;29;20937;-80
2022/01/15 00:28:32;;;;;;;0.40;0.40;;;0.10;99.90;;;;;;4916277;29;20843;-80
2022/01/15 00:30:58;;;;;;;0.30;0.30;;;0.00;99.90;;;;;;4916387;29;20452;-80
2022/01/15 00:33:26;;;;;;;0.30;0.27;;;0.00;99.90;;;;;;4916879;29;20472;-80
2022/01/15 00:35:53;;;;;;;0.40;0.40;;;0.00;99.90;;;;;;4919070;29;21019;-80
2022/01/15 00:38:19;;;;;;;0.30;0.30;;;0.00;99.90;;;;;;4919836;29;20458;-80
2022/01/15 00:40:46;;;;;;;0.30;0.30;;;0.00;99.90;;;;;;4920054;29;20455;-80
2022/01/15 00:43:13;;;;;;;0.60;0.43;;;0.00;99.90;;;;;;4920777;29;20479;-82
2022/01/15 00:45:41;;;;;;;1.03;1.03;;;0.00;99.90;;;;;;4919722;29;20835;-82
2022/01/15 00:48:08;;;;;;;0.40;0.40;;;0.00;99.90;;;;;;4919738;29;20459;-82
2022/01/15 00:50:34;;;;;;;0.30;0.27;;;0.00;99.90;;;;;;4919969;29;20451;-82
2022/01/15 00:53:01;;;;;;;0.30;0.20;;;0.00;99.90;;;;;;4919586;29;20456;-82
2022/01/15 00:55:28;;;;;;;0.40;0.40;;;-0.10;99.90;;;;;;4919897;29;20460;-82
2022/01/15 00:57:55;;;;;;;1.20;0.73;;;-0.10;99.90;;;;;;4919840;29;20452;-82
2022/01/15 01:00:24;;;;;;;0.40;0.40;;;-0.10;99.90;;;;;;4919991;29;20455;-82
2022/01/15 01:02:53;;;;;;;1.53;1.53;;;-0.20;99.90;;;;;;4919562;29;20492;-82
2022/01/15 01:05:21;;;;;;;0.30;0.30;;;-0.20;99.90;;;;;;4919703;29;20460;-82
2022/01/15 01:07:48;;;;;;;0.30;0.30;;;-0.20;99.90;;;;;;4919374;29;20967;-82
2022/01/15 01:10:39;;;;;;;0.30;0.30;;;-0.20;99.90;;;;;;4919652;29;20452;-82
2022/01/15 01:13:17;;;;;;;1.13;1.13;;;-0.20;99.90;;;;;;4919454;29;20452;-82
2022/01/15 01:24:08;;;;;;;0.30;0.30;;;-0.30;99.90;;;;;;4919087;29;20451;-82
2022/01/15 01:26:43;;;;;;;0.30;0.30;;;-0.30;99.90;;;;;;4919332;29;20434;-83
2022/01/15 01:29:19;;;;;;;0.30;0.30;;;-0.30;99.90;;;;;;4919033;29;20450;-83
2022/01/15 01:31:56;;;;;;;0.37;0.37;;;-0.30;99.90;;;;;;4919335;29;20443;-83
2022/01/15 01:34:26;;;;;;;0.50;0.50;;;-0.30;99.90;;;;;;4919213;29;20479;-83
2022/01/15 01:37:00;;;;;;;0.30;0.20;;;-0.30;99.90;;;;;;4918897;29;20557;-83
2022/01/15 01:39:36;;;;;;;0.30;0.20;;;-0.30;99.90;;;;;;4919226;29;20536;-80
2022/01/15 01:42:10;;;;;;;0.30;0.30;;;-0.30;99.90;;;;;;4919162;29;20476;-79
2022/01/15 01:44:41;;;;;;;0.50;0.50;;;-0.30;99.90;;;;;;4918956;29;20550;-80
2022/01/15 01:47:18;;;;;;;0.40;0.40;;;-0.40;99.90;;;;;;4918451;29;20437;-80
2022/01/15 01:49:46;;;;;;;0.40;0.40;;;-0.40;99.90;;;;;;4918992;29;20444;-80
2022/01/15 01:52:13;;;;;;;0.40;0.40;;;-0.40;99.90;;;;;;4918849;29;20452;-80
2022/01/15 01:54:39;;;;;;;0.30;0.30;;;-0.40;99.90;;;;;;4918875;29;20479;-83
2022/01/15 01:57:06;;;;;;;0.63;0.63;;;-0.50;99.90;;;;;;4918779;29;20478;-83
2022/01/15 01:59:33;;;;;;;1.70;1.70;;;-0.50;99.90;;;;;;4918445;29;20964;-83
2022/01/15 02:02:00;;;;;;;0.93;0.70;;;-0.50;99.90;;;;;;4918637;29;20494;-83
2022/01/15 02:04:26;;;;;;;0.87;0.50;;;-0.50;99.90;;;;;;4918190;29;21015;-83
2022/01/15 02:06:54;;;;;;;0.40;0.40;;;-0.40;99.90;;;;;;4918622;29;20460;-83
2022/01/15 02:09:23;;;;;;;2.10;1.13;;;-0.40;99.90;;;;;;4918640;29;20456;-82
2022/01/15 02:11:50;;;;;;;0.57;0.57;;;-0.50;99.90;;;;;;4918450;29;20483;-80
2022/01/15 02:14:26;;;;;;;0.47;0.47;;;-0.50;99.90;;;;;;4918184;29;21003;-80
2022/01/15 02:16:52;;;;;;;0.30;0.30;;;-0.50;99.90;;;;;;4918503;29;20905;-80
2022/01/15 02:19:19;;;;;;;0.30;0.30;;;-0.50;99.90;;;;;;4918440;29;20444;-80
2022/01/15 02:24:32;;;;;;;0.30;0.30;;;-0.50;99.90;;;;;;4918028;29;20479;-79
2022/01/15 02:26:58;;;;;;;0.60;0.60;;;-0.40;99.90;;;;;;4917968;29;20419;-79
2022/01/15 02:29:25;;;;;;;0.40;0.40;;;-0.40;99.90;;;;;;4917935;29;20444;-82
2022/01/15 02:31:53;;;;;;;1.17;1.07;;;-0.50;99.90;;;;;;4918259;29;20463;-82
2022/01/15 02:34:20;;;;;;;0.83;0.83;;;-0.50;99.90;;;;;;4918132;29;20476;-82
2022/01/15 02:36:48;;;;;;;0.40;0.40;;;-0.50;99.90;;;;;;4917844;29;20466;-82
2022/01/15 02:39:15;;;;;;;0.30;0.30;;;-0.60;99.90;;;;;;4918091;29;20440;-83
2022/01/15 02:41:42;;;;;;;0.40;0.40;;;-0.60;99.90;;;;;;4917867;29;20458;-82
2022/01/15 02:44:16;;;;;;;0.40;0.40;;;-0.60;99.90;;;;;;4917962;29;20504;-83
2022/01/15 02:49:39;;;;;;;0.80;0.80;;;-0.70;99.90;;;;;;4841633;29;20780;-82
2022/01/15 02:52:07;;;;;;;0.30;0.20;;;-0.70;99.90;;;;;;4899338;29;20443;-82
2022/01/15 02:54:34;;;;;;;0.33;0.33;;;-0.80;99.90;;;;;;4917745;29;20467;-82
2022/01/15 02:57:04;;;;;;;0.40;0.40;;;-0.80;99.90;;;;;;4917739;29;20456;-82
2022/01/15 02:59:31;;;;;;;0.50;0.50;;;-0.80;99.90;;;;;;4916979;29;20403;-82
2022/01/15 03:01:58;;;;;;;0.30;0.30;;;-0.90;99.90;;;;;;4917841;29;20496;-81
2022/01/15 03:04:24;;;;;;;0.83;0.83;;;-0.80;99.90;;;;;;4917631;29;20451;-81
2022/01/15 03:06:51;;;;;;;0.43;0.43;;;-0.80;99.90;;;;;;4917202;29;20511;-81
2022/01/15 03:09:19;;;;;;;0.30;0.30;;;-0.80;99.90;;;;;;4917222;29;20931;-82
2022/01/15 03:11:46;;;;;;;0.60;0.60;;;-0.80;99.90;;;;;;4917158;29;20452;-82
2022/01/15 03:14:18;;;;;;;0.87;0.60;;;-0.80;99.90;;;;;;4917394;29;20480;-81
2022/01/15 03:16:44;;;;;;;0.50;0.50;;;-0.80;99.90;;;;;;4917470;29;20444;-81
2022/01/15 03:19:11;;;;;;;0.40;0.40;;;-0.80;99.90;;;;;;4917155;29;20448;-82
2022/01/15 03:21:38;;;;;;;0.40;0.40;;;-0.80;99.90;;;;;;4917299;29;20457;-81
2022/01/15 03:24:05;;;;;;;0.60;0.60;;;-0.80;99.90;;;;;;4916943;29;20472;-81
2022/01/15 03:26:33;;;;;;;2.10;0.63;;;-0.80;99.90;;;;;;4916995;29;20987;-81
2022/01/15 03:29:00;;;;;;;0.30;0.30;;;-0.80;99.90;;;;;;4917296;29;20504;-81
2022/01/15 03:31:27;;;;;;;0.60;0.60;;;-0.80;99.90;;;;;;4916959;29;20419;-81
2022/01/15 03:33:53;;;;;;;0.30;0.30;;;-0.80;99.90;;;;;;4917190;29;20502;-81
2022/01/15 03:36:20;;;;;;;0.30;0.30;;;-0.80;99.90;;;;;;4917206;29;20479;-82
2022/01/15 03:38:47;;;;;;;0.30;0.30;;;-0.80;99.90;;;;;;4916707;29;20465;-81
2022/01/15 03:41:13;;;;;;;1.43;1.03;;;-0.80;99.90;;;;;;4917164;29;20430;-78
2022/01/15 03:43:42;;;;;;;0.30;0.30;;;-0.80;99.90;;;;;;4916726;29;21020;-78
2022/01/15 03:46:08;;;;;;;0.30;0.30;;;-0.80;99.90;;;;;;4917994;29;20431;-81
2022/01/15 03:48:35;;;;;;;0.43;0.43;;;-0.80;99.90;;;;;;4917123;29;20410;-81
2022/01/15 03:51:03;;;;;;;1.00;0.87;;;-0.80;99.90;;;;;;4917081;29;20461;-80
2022/01/15 03:53:29;;;;;;;0.93;0.60;;;-0.80;99.90;;;;;;4916796;29;20492;-80
2022/01/15 03:55:56;;;;;;;0.30;0.30;;;-0.80;99.90;;;;;;4917044;29;20452;-80
2022/01/15 03:58:23;;;;;;;0.90;0.53;;;-0.80;99.90;;;;;;4917319;29;20822;-80
2022/01/15 04:00:51;;;;;;;0.60;0.60;;;-0.80;99.90;;;;;;4916773;29;20452;-80
2022/01/15 04:03:18;;;;;;;0.30;0.20;;;-0.80;99.90;;;;;;4916604;29;20477;-80
2022/01/15 04:05:45;;;;;;;0.30;0.30;;;-0.80;99.90;;;;;;4916719;29;20448;-77
2022/01/15 04:08:11;;;;;;;0.40;0.40;;;-0.80;99.90;;;;;;4916721;29;20444;-75
2022/01/15 04:10:38;;;;;;;0.47;0.47;;;-0.80;99.90;;;;;;4919628;29;20466;-79
2022/01/15 04:13:05;;;;;;;0.70;0.70;;;-0.90;99.90;;;;;;4920386;29;20422;-79
2022/01/15 04:15:32;;;;;;;0.60;0.40;;;-0.90;99.90;;;;;;4920381;29;20842;-79
2022/01/15 04:18:00;;;;;;;0.30;0.30;;;-0.90;99.90;;;;;;4920487;29;20484;-79
2022/01/15 04:20:26;;;;;;;0.43;0.43;;;-1.00;99.90;;;;;;4920496;29;20455;-79
2022/01/15 04:22:54;;;;;;;0.37;0.37;;;-1.00;99.90;;;;;;4920083;29;21011;-79
2022/01/15 04:25:21;;;;;;;0.30;0.30;;;-1.00;99.90;;;;;;4920474;29;20852;-79
2022/01/15 04:27:48;;;;;;;0.30;0.20;;;-1.00;99.90;;;;;;4920431;29;20448;-79
2022/01/15 04:30:16;;;;;;;0.30;0.30;;;-1.00;99.90;;;;;;4920376;29;20467;-79
2022/01/15 04:32:43;;;;;;;0.40;0.33;;;-1.00;99.90;;;;;;4920345;29;20447;-79
2022/01/15 04:35:12;;;;;;;1.70;1.03;;;-1.00;99.90;;;;;;4919869;29;20476;-80
2022/01/15 04:37:42;;;;;;;0.30;0.20;;;-1.00;99.90;;;;;;4919854;29;20470;-80
2022/01/15 04:40:11;;;;;;;0.40;0.40;;;-1.00;99.90;;;;;;4920477;29;20460;-80
2022/01/15 04:42:38;;;;;;;0.40;0.40;;;-1.00;99.90;;;;;;4920064;29;20487;-80
2022/01/15 04:45:07;;;;;;;0.30;0.30;;;-1.00;99.90;;;;;;4919652;29;20531;-80
2022/01/15 04:47:34;;;;;;;0.30;0.30;;;-1.00;99.90;;;;;;4920714;29;20546;-80
2022/01/15 04:50:01;;;;;;;0.57;0.57;;;-1.10;99.90;;;;;;4920023;29;20490;-80
2022/01/15 04:52:30;;;;;;;0.30;0.30;;;-1.10;99.90;;;;;;4919845;29;20455;-80
2022/01/15 04:54:57;;;;;;;0.40;0.40;;;-1.10;99.90;;;;;;4920305;29;20987;-78
2022/01/15 04:57:23;;;;;;;0.50;0.50;;;-1.10;99.90;;;;;;4919618;29;20967;-76
2022/01/15 04:59:50;;;;;;;0.30;0.30;;;-1.10;99.90;;;;;;4919867;29;20451;-76
2022/01/15 05:02:17;;;;;;;0.40;0.40;;;-1.10;99.90;;;;;;4919816;29;20460;-80
2022/01/15 05:04:43;;;;;;;0.40;0.40;;;-1.10;99.90;;;;;;4919263;29;20986;-80
2022/01/15 05:07:10;;;;;;;0.30;0.20;;;-1.20;99.90;;;;;;4919661;29;20882;-80
2022/01/15 05:09:38;;;;;;;0.40;0.40;;;-1.10;99.90;;;;;;4920773;29;20455;-80
2022/01/15 05:12:10;;;;;;;1.50;1.50;;;-1.10;99.90;;;;;;4919644;29;20454;-77
2022/01/15 05:14:37;;;;;;;1.73;1.63;;;-1.10;99.90;;;;;;4919311;29;20527;-76
2022/01/15 05:17:04;;;;;;;1.37;0.63;;;-1.10;99.90;;;;;;4919812;29;20483;-77
2022/01/15 05:19:31;;;;;;;0.30;0.30;;;-1.20;99.90;;;;;;4919198;29;20437;-76
2022/01/15 05:21:58;;;;;;;4.00;1.80;;;-1.20;99.90;;;;;;4918473;29;20459;-76
2022/01/15 05:24:26;;;;;;;0.30;0.30;;;-1.20;99.90;;;;;;4919265;29;20502;-80
2022/01/15 05:26:54;;;;;;;0.30;0.30;;;-1.20;99.90;;;;;;4918979;29;20901;-80
2022/01/15 05:29:21;;;;;;;0.87;0.87;;;-1.20;99.90;;;;;;4919351;29;20466;-80
2022/01/15 05:31:48;;;;;;;0.50;0.50;;;-1.20;99.90;;;;;;4919294;29;20463;-80
2022/01/15 05:34:15;;;;;;;0.40;0.40;;;-1.30;99.90;;;;;;4919179;29;20465;-80
2022/01/15 05:36:41;;;;;;;0.30;0.30;;;-1.30;99.90;;;;;;4918734;29;20448;-78
2022/01/15 05:39:08;;;;;;;0.30;0.30;;;-1.30;99.90;;;;;;4918954;29;20916;-79
2022/01/15 05:41:35;;;;;;;0.30;0.30;;;-1.30;99.90;;;;;;4919130;29;20456;-80
2022/01/15 05:44:03;;;;;;;0.40;0.40;;;-1.30;99.90;;;;;;4918923;29;20543;-80
2022/01/15 05:46:31;;;;;;;0.30;0.30;;;-1.30;99.90;;;;;;4918988;29;20463;-80
2022/01/15 05:48:57;;;;;;;0.30;0.30;;;-1.30;99.90;;;;;;4918983;29;20527;-78
2022/01/15 05:51:29;;;;;;;0.30;0.23;;;-1.30;99.90;;;;;;4918948;29;20965;-78
2022/01/15 05:53:55;;;;;;;0.63;0.60;;;-1.30;99.90;;;;;;4918813;29;20453;-78
2022/01/15 05:56:22;;;;;;;0.30;0.23;;;-1.30;99.90;;;;;;4918882;29;20459;-78
2022/01/15 05:58:49;;;;;;;0.30;0.30;;;-1.30;99.90;;;;;;4918677;29;20463;-78
2022/01/15 06:01:17;;;;;;;0.30;0.20;;;-1.20;99.90;;;;;;4918732;29;20452;-78
2022/01/15 06:03:44;;;;;;;0.30;0.30;;;-1.30;99.90;;;;;;4918253;29;21043;-80
2022/01/15 06:06:10;;;;;;;0.30;0.30;;;-1.30;99.90;;;;;;4918398;29;20816;-80
2022/01/15 06:08:37;;;;;;;0.50;0.50;;;-1.20;99.90;;;;;;4918633;29;20467;-80
2022/01/15 06:11:04;;;;;;;0.30;0.30;;;-1.20;99.90;;;;;;4918563;29;20452;-80
2022/01/15 06:13:30;;;;;;;0.30;0.30;;;-1.20;99.90;;;;;;4918298;29;20468;-80
2022/01/15 06:15:57;;;;;;;0.30;0.30;;;-1.20;99.90;;;;;;4918137;29;20957;-80
2022/01/15 06:18:25;;;;;;;1.13;1.03;;;-1.20;99.90;;;;;;4918145;29;20967;-80
2022/01/15 06:20:52;;;;;;;0.30;0.30;;;-1.20;99.90;;;;;;4918431;29;20463;-80
2022/01/15 06:23:18;;;;;;;0.60;0.60;;;-1.20;99.90;;;;;;4918295;29;20466;-80
2022/01/15 06:25:45;;;;;;;0.30;0.30;;;-1.20;99.90;;;;;;4918372;29;20463;-80
2022/01/15 06:28:12;;;;;;;0.90;0.90;;;-1.20;99.90;;;;;;4918261;29;20459;-80
2022/01/15 06:30:38;;;;;;;0.30;0.30;;;-1.20;99.90;;;;;;4918213;29;20459;-80
2022/01/15 06:33:05;;;;;;;0.57;0.57;;;-1.20;99.90;;;;;;4917958;29;20507;-76
2022/01/15 06:35:33;;;;;;;1.03;1.03;;;-1.20;99.90;;;;;;4918298;29;20435;-76
2022/01/15 06:38:00;;;;;;;0.40;0.40;;;-1.20;99.90;;;;;;4917583;29;20488;-76
2022/01/15 06:40:26;;;;;;;2.20;2.00;;;-1.20;99.90;;;;;;4917783;29;20854;-76
2022/01/15 06:42:53;;;;;;;0.30;0.20;;;-1.30;99.90;;;;;;4917863;29;20486;-77
2022/01/15 06:45:20;;;;;;;0.73;0.73;;;-1.30;99.90;;;;;;4917623;29;20963;-80
2022/01/15 06:47:47;;;;;;;0.30;0.30;;;-1.30;99.90;;;;;;4917927;29;20463;-80
2022/01/15 06:50:13;;;;;;;1.33;1.23;;;-1.30;99.90;;;;;;4917809;29;20456;-78
2022/01/15 06:52:42;;;;;;;0.50;0.50;;;-1.40;99.90;;;;;;4917799;29;20456;-78
2022/01/15 06:55:10;;;;;;;1.53;1.50;;;-1.40;99.90;;;;;;4917258;29;20991;-76
2022/01/15 06:57:37;;;;;;;6.63;0.83;;;-1.30;99.90;;;;;;4917702;29;20499;-76
2022/01/15 07:00:05;;;;;;;1.53;1.43;;;-1.30;99.90;;;;;;4917682;29;20467;-77
2022/01/15 07:02:32;;;;;;;0.37;0.33;;;-1.30;99.90;;;;;;4917692;29;20423;-81
2022/01/15 07:04:59;;;;;;;0.30;0.30;;;-1.30;99.90;;;;;;4917257;29;20499;-81
2022/01/15 07:07:26;;;;;;;0.90;0.53;;;-1.30;99.90;;;;;;4917564;29;20511;-77
2022/01/15 07:09:54;;;;;;;0.30;0.30;;;-1.30;99.90;;;;;;4917567;29;20869;-77
2022/01/15 07:12:21;;;;;;;0.40;0.40;;;-1.30;99.90;;;;;;4917185;29;20455;-80
2022/01/15 07:14:48;;;;;;;1.53;1.43;;;-1.30;99.90;;;;;;4917187;29;20562;-82
2022/01/15 07:17:15;;;;;;;0.83;0.83;;;-1.30;99.90;;;;;;4917279;29;20527;-80
2022/01/15 07:19:42;;;;;;;0.40;0.40;;;-1.20;99.90;;;;;;4917458;29;20464;-79
2022/01/15 07:22:09;;;;;;;0.40;0.40;;;-1.20;99.90;;;;;;4917141;29;20876;-80
2022/01/15 07:24:36;;;;;;;0.97;0.73;;;-1.20;99.90;;;;;;4916910;29;20496;-79
2022/01/15 07:27:05;;;;;;;0.30;0.30;;;-1.20;99.90;;;;;;4917303;29;20451;-79
2022/01/15 07:29:31;;;;;;;0.43;0.43;;;-1.20;99.90;;;;;;4917030;29;20547;-80
2022/01/15 07:31:58;;;;;;;0.80;0.73;;;-1.20;99.90;;;;;;4917280;29;20460;-80
2022/01/15 07:34:25;;;;;;;0.30;0.30;;;-1.20;99.90;;;;;;4917259;29;20474;-77
2022/01/15 07:36:57;;;;;;;0.30;0.30;;;-1.20;99.90;;;;;;4916979;29;20527;-77
2022/01/15 07:39:24;;;;;;;0.40;0.40;;;-1.20;99.90;;;;;;4917218;29;20466;-76
2022/01/15 07:41:51;;;;;;;0.60;0.60;;;-1.20;99.90;;;;;;4917148;29;20460;-77
2022/01/15 07:44:19;;;;;;;0.30;0.30;;;-1.20;99.90;;;;;;4916494;29;20498;-77
2022/01/15 07:46:46;;;;;;;1.60;1.50;;;-1.20;99.90;;;;;;4916821;29;20448;-80
2022/01/15 07:49:13;;;;;;;0.40;0.40;;;-1.10;99.90;;;;;;4917180;29;20456;-80
2022/01/15 07:51:39;;;;;;;0.40;0.40;;;-1.10;99.90;;;;;;4916682;29;20942;-80
2022/01/15 07:54:06;;;;;;;0.97;0.97;;;-1.10;99.90;;;;;;4916984;29;20446;-80
2022/01/15 07:56:33;;;;;;;0.30;0.30;;;-1.00;99.90;;;;;;4916832;29;20452;-81
2022/01/15 07:58:59;;;;;;;0.37;0.37;;;-0.90;99.90;;;;;;4916927;29;20447;-80
2022/01/15 08:01:28;;;;;;;0.70;0.70;;;-0.90;99.90;;;;;;4917001;29;20431;-81
2022/01/15 08:03:55;;;;;;;0.40;0.40;;;-0.90;99.90;;;;;;4916907;29;20492;-81
2022/01/15 08:06:21;;;;;;;0.50;0.50;;;-0.80;99.90;;;;;;4917007;29;20478;-81
2022/01/15 08:08:48;;;;;;;0.30;0.30;;;-0.80;99.90;;;;;;4916954;29;20460;-81
2022/01/15 08:11:16;;;;;;;1.27;1.27;;;-0.80;99.90;;;;;;4917000;29;20967;-81
2022/01/15 08:13:43;;;;;;;0.50;0.50;;;-0.80;99.90;;;;;;4916841;29;20475;-81
2022/01/15 08:16:09;;;;;;;0.83;0.83;;;-0.80;99.90;;;;;;4917010;29;20999;-81
2022/01/15 08:18:38;;;;;;;0.53;0.53;;;-0.70;99.90;;;;;;4917447;29;20551;-77
2022/01/15 08:21:06;;;;;;;0.40;0.40;;;-0.70;99.90;;;;;;4916560;29;20974;-77
2022/01/15 08:23:34;;;;;;;0.30;0.30;;;-0.60;99.90;;;;;;4916718;29;20502;-77
2022/01/15 08:26:00;;;;;;;0.30;0.30;;;-0.60;99.90;;;;;;4916827;29;20443;-77
2022/01/15 08:28:27;;;;;;;0.30;0.30;;;-0.50;99.90;;;;;;4916816;29;20507;-77
2022/01/15 08:30:54;;;;;;;0.30;0.30;;;-0.40;99.90;;;;;;4916493;29;20437;-77
2022/01/15 08:33:21;;;;;;;0.30;0.20;;;-0.40;99.90;;;;;;4916659;29;20478;-77
2022/01/15 08:35:49;;;;;;;1.03;0.93;;;-0.40;99.90;;;;;;4916576;29;20451;-77
2022/01/15 08:38:16;;;;;;;3.47;0.90;;;-0.40;99.90;;;;;;4917373;29;20495;-76
2022/01/15 08:40:43;;;;;;;0.47;0.47;;;-0.30;99.90;;;;;;4917226;29;20920;-77
2022/01/15 08:43:10;;;;;;;0.50;0.50;;;-0.30;99.90;;;;;;4916578;29;20464;-76
2022/01/15 08:45:38;;;;;;;1.20;1.20;;;-0.20;99.90;;;;;;4916876;29;20472;-80
2022/01/15 08:48:08;;;;;;;0.60;0.60;;;-0.20;99.90;;;;;;4916517;29;20436;-80
2022/01/15 08:50:36;;;;;;;0.60;0.60;;;-0.20;99.90;;;;;;4915412;29;20468;-80
2022/01/15 08:53:06;;;;;;;1.17;1.17;;;-0.10;99.90;;;;;;4914763;29;20821;-81
2022/01/15 08:55:33;;;;;;;0.70;0.60;;;-0.10;99.90;;;;;;4916402;29;20495;-81
2022/01/15 08:58:00;;;;;;;1.07;0.50;;;0.00;99.90;;;;;;4919352;29;20459;-81
2022/01/15 09:00:27;;;;;;;0.30;0.30;;;0.00;99.90;;;;;;4919475;29;21008;-81
2022/01/15 09:02:55;;;;;;;0.33;0.33;;;0.10;99.90;;;;;;4919754;29;20456;-81
2022/01/15 09:05:22;;;;;;;0.30;0.30;;;0.20;99.90;;;;;;4919237;29;21000;-81
2022/01/15 09:07:50;;;;;;;0.83;0.83;;;0.30;99.90;;;;;;4919766;29;20459;-81
2022/01/15 09:10:18;;;;;;;0.30;0.20;;;0.40;99.90;;;;;;4919597;29;20460;-82
2022/01/15 09:12:45;;;;;;;0.80;0.80;;;0.40;99.90;;;;;;4919744;29;20460;-82
2022/01/15 09:15:14;;;;;;;0.53;0.43;;;0.60;99.90;;;;;;4919547;29;20442;-81
2022/01/15 09:17:42;;;;;;;0.30;0.30;;;0.80;99.90;;;;;;4919599;29;20448;-82
2022/01/15 09:20:10;;;;;;;0.40;0.40;;;0.80;99.90;;;;;;4920624;29;20475;-82
2022/01/15 09:22:37;;;;;;;1.07;0.97;;;1.40;99.90;;;;;;4919357;29;20448;-79
2022/01/15 09:25:04;;;;;;;9.57;1.23;;;2.80;99.90;;;;;;4918953;29;20496;-79
2022/01/15 09:30:17;;;;;;;0.30;0.30;;;6.50;99.90;;;;;;4919412;29;20769;-80
2022/01/15 09:32:48;;;;;;;0.50;0.50;;;8.30;99.90;;;;;;4919021;29;20511;-80
2022/01/15 09:35:21;;;;;;;2.30;1.60;;;9.40;99.90;;;;;;4919077;29;20494;-80
2022/01/15 09:37:49;;;;;;;1.47;0.53;;;9.90;99.90;;;;;;4918767;29;20508;-80
2022/01/15 09:40:17;;;;;;;1.37;1.27;;;10.10;99.90;;;;;;4918834;29;20511;-81
2022/01/15 09:42:47;;;;;;;1.47;1.37;;;10.00;99.90;;;;;;4919097;29;20449;-81
2022/01/15 09:45:15;;;;;;;3.30;2.40;;;9.80;99.90;;;;;;4918978;29;20558;-82
2022/01/15 09:47:42;;;;;;;1.80;1.60;;;9.50;99.90;;;;;;4918760;29;20448;-81
2022/01/15 09:50:11;;;;;;;1.60;1.50;;;9.30;99.90;;;;;;4918948;29;20467;-81
2022/01/15 09:52:38;;;;;;;0.93;0.90;;;9.10;99.90;;;;;;4920163;29;20464;-84
2022/01/15 09:55:09;;;;;;;5.57;1.10;;;8.90;99.90;;;;;;4923433;29;20483;-83
2022/01/15 09:57:36;;;;;;;1.80;0.83;;;8.90;99.90;;;;;;4919827;29;20440;-80
2022/01/15 10:00:08;;;;;;;0.40;0.40;;;9.10;99.90;;;;;;4918792;29;20459;-80
2022/01/15 10:02:36;;;;;;;0.80;0.77;;;9.60;99.90;;;;;;4918536;29;20436;-80
2022/01/15 10:05:03;;;;;;;1.10;0.90;;;10.50;99.90;;;;;;4918433;29;20590;-80
2022/01/15 10:07:29;;;;;;;0.80;0.80;;;11.60;99.90;;;;;;4918097;29;20456;-80
2022/01/15 10:09:56;;;;;;;2.03;1.93;;;12.70;98.60;;;;;;4918428;29;20445;-80
2022/01/15 10:12:30;;;;;;;2.67;1.53;;;13.80;95.30;;;;;;4918601;29;20452;-80
2022/01/15 10:15:01;;;;;;;3.83;2.70;;;14.70;90.40;;;;;;4918473;29;20477;-81
2022/01/15 10:17:33;;;;;;;2.50;2.07;;;15.40;83.80;;;;;;4918258;29;20904;-81
2022/01/15 10:20:00;;;;;;;2.30;1.73;;;16.00;78.20;;;;;;4918421;29;20444;-81
2022/01/15 10:22:29;;;;;;;3.83;1.80;;;16.00;76.40;;;;;;4918234;29;20451;-81
2022/01/15 10:24:58;;;;;;;2.50;1.37;;;15.60;75.00;;;;;;4918041;29;20484;-81
2022/01/15 10:27:29;;;;;;;9.23;2.23;;;14.70;75.40;;;;;;4918349;29;20908;-81
2022/01/15 10:29:59;;;;;;;2.40;2.30;;;13.40;76.30;;;;;;4917989;29;20924;-81
2022/01/15 10:32:27;;;;;;;5.20;4.70;;;12.10;80.40;;;;;;4918545;29;20417;-81
2022/01/15 10:34:56;;;;;;;5.43;1.60;;;11.10;83.60;;;;;;4918148;29;20467;-81
2022/01/15 10:37:24;;;;;;;4.80;2.00;;;10.10;87.50;;;;;;4917773;29;20841;-81
2022/01/15 10:40:00;;;;;;;1.40;1.20;;;9.20;91.40;;;;;;4918952;29;20956;-84
2022/01/15 10:42:27;;;;;;;1.83;0.87;;;8.60;93.30;;;;;;4919255;29;20428;-84
2022/01/15 10:44:56;;;;;;;1.00;0.80;;;8.20;94.70;;;;;;4918980;29;20506;-84
2022/01/15 10:47:25;;;;;;;0.60;0.60;;;8.10;96.40;;;;;;4918409;29;20436;-84
2022/01/15 10:49:52;;;;;;;0.93;0.93;;;7.90;97.20;;;;;;4921457;29;20444;-83
2022/01/15 10:52:23;;;;;;;1.17;1.17;;;7.80;98.10;;;;;;4918110;29;20432;-82
2022/01/15 10:54:58;;;;;;;0.60;0.60;;;7.80;98.00;;;;;;4917832;29;20467;-83
2022/01/15 10:57:28;;;;;;;2.03;0.70;;;7.50;98.90;;;;;;4917663;29;20417;-79
2022/01/15 11:00:06;;;;;;;0.80;0.80;;;7.30;99.70;;;;;;4917870;29;20420;-80
2022/01/15 11:02:33;;;;;;;0.70;0.70;;;7.20;99.90;;;;;;4917604;29;20467;-80
2022/01/15 11:05:00;;;;;;;0.50;0.50;;;6.90;99.90;;;;;;4917586;29;20503;-81
2022/01/15 11:07:28;;;;;;;0.73;0.40;;;6.80;99.90;;;;;;4917674;29;20444;-79
2022/01/15 11:09:55;;;;;;;0.80;0.80;;;6.70;99.90;;;;;;4917961;29;20448;-79
2022/01/15 11:12:26;;;;;;;0.50;0.50;;;6.50;99.90;;;;;;4917301;29;20496;-79
2022/01/15 11:14:54;;;;;;;0.50;0.50;;;6.30;99.90;;;;;;4917066;29;20465;-79
2022/01/15 11:17:20;;;;;;;1.53;0.87;;;6.10;99.90;;;;;;4917226;29;20440;-78
2022/01/15 11:19:53;;;;;;;2.83;0.83;;;6.10;99.90;;;;;;4916444;29;20437;-78
2022/01/15 11:22:22;;;;;;;0.97;0.73;;;6.00;99.90;;;;;;4916966;29;20468;-78
2022/01/15 13:13:44;;;;;;;0.43;0.43;;;5.00;99.90;;;;;;4915587;29;20446;-76
2022/01/15 13:29:40;;;;;;;0.30;0.27;;;4.90;99.90;;;;;;4830691;29;20474;-77
2022/01/15 13:32:08;;;;;;;0.50;0.50;;;4.90;99.90;;;;;;4861038;29;20464;-77
2022/01/15 13:34:36;;;;;;;0.60;0.60;;;4.90;99.90;;;;;;4918810;29;20476;-77
2022/01/15 13:37:10;;;;;;;0.40;0.37;;;4.90;99.90;;;;;;4918533;29;21037;-77
2022/01/15 13:39:40;;;;;;;0.40;0.40;;;4.90;99.90;;;;;;4919033;29;20994;-76
2022/01/15 13:42:16;;;;;;;0.40;0.30;;;4.90;99.90;;;;;;4917710;29;20425;-76
2022/01/15 13:44:44;;;;;;;0.77;0.77;;;4.90;99.90;;;;;;4918690;29;20510;-76
2022/01/15 13:47:13;;;;;;;0.33;0.33;;;4.90;99.90;;;;;;4918740;29;20452;-76
2022/01/15 13:55:15;;;;;;;0.50;0.50;;;4.90;99.90;;;;;;4918373;29;20455;-77
2022/01/15 13:57:42;;;;;;;1.10;1.00;;;4.90;99.90;;;;;;4918604;29;20449;-77
2022/01/15 14:00:12;;;;;;;0.80;0.50;;;4.90;99.90;;;;;;4918504;29;20448;-77
2022/01/15 14:02:40;;;;;;;0.40;0.40;;;4.90;99.90;;;;;;4918577;29;20908;-77
2022/01/15 14:05:14;;;;;;;0.30;0.27;;;5.00;99.90;;;;;;4918030;29;20492;-77
2022/01/15 14:07:41;;;;;;;0.40;0.40;;;5.00;99.90;;;;;;4918436;29;20436;-77
2022/01/15 14:10:10;;;;;;;0.90;0.90;;;5.00;99.90;;;;;;4918352;29;20507;-77
2022/01/15 14:12:42;;;;;;;0.40;0.40;;;5.00;99.90;;;;;;4918326;29;20483;-77
2022/01/15 14:15:14;;;;;;;0.67;0.67;;;5.00;99.90;;;;;;4918095;29;21007;-78
2022/01/15 14:17:43;;;;;;;1.33;1.23;;;4.90;99.90;;;;;;4918238;29;20444;-78
2022/01/15 14:20:39;;;;;;;0.43;0.30;;;4.80;99.90;;;;;;4918126;29;20506;-78
2022/01/15 14:23:07;;;;;;;0.67;0.40;;;4.80;99.90;;;;;;4917551;29;20444;-78
2022/01/15 14:25:37;;;;;;;0.33;0.33;;;5.00;99.90;;;;;;4917985;29;20488;-78
2022/01/15 14:28:06;;;;;;;0.60;0.60;;;5.20;99.90;;;;;;4917995;29;20552;-78
2022/01/15 14:30:36;;;;;;;0.33;0.27;;;5.20;99.90;;;;;;4917982;29;20453;-78
2022/01/15 14:33:04;;;;;;;0.40;0.40;;;5.10;99.90;;;;;;4917872;29;20535;-78
2022/01/15 14:35:31;;;;;;;0.87;0.87;;;5.00;99.90;;;;;;4917855;29;20482;-78
2022/01/15 14:37:59;;;;;;;2.03;2.00;;;5.10;99.90;;;;;;4917837;29;20455;-77
2022/01/15 14:40:26;;;;;;;0.40;0.40;;;5.00;99.90;;;;;;4917720;29;20444;-77
2022/01/15 14:42:53;;;;;;;0.53;0.53;;;5.00;99.90;;;;;;4917421;29;20447;-77
2022/01/15 14:45:20;;;;;;;0.60;0.60;;;5.00;99.90;;;;;;4917597;29;20495;-77
2022/01/15 14:47:51;;;;;;;0.70;0.70;;;4.90;99.90;;;;;;4917652;29;20455;-77
2022/01/15 14:50:21;;;;;;;0.90;0.90;;;4.90;99.90;;;;;;4917636;29;20532;-77
2022/01/15 14:52:51;;;;;;;0.47;0.47;;;4.80;99.90;;;;;;4917956;29;20464;-77
2022/01/15 14:55:21;;;;;;;1.13;1.13;;;4.70;99.90;;;;;;4917070;29;20488;-77
2022/01/15 14:57:50;;;;;;;1.87;0.63;;;4.60;99.90;;;;;;4918017;29;20765;-77
2022/01/15 15:00:19;;;;;;;3.70;0.80;;;4.60;99.90;;;;;;4917243;29;20456;-77
2022/01/15 15:02:52;;;;;;;0.40;0.40;;;4.50;99.90;;;;;;4917415;29;20505;-76
2022/01/15 15:05:22;;;;;;;1.07;0.67;;;4.50;99.90;;;;;;4916902;29;21018;-77
2022/01/15 15:07:51;;;;;;;0.50;0.50;;;4.40;99.90;;;;;;4917677;29;20436;-77
2022/01/15 15:10:20;;;;;;;1.23;1.23;;;4.40;99.90;;;;;;4917472;29;20456;-77
2022/01/15 15:12:56;;;;;;;0.30;0.30;;;4.30;99.90;;;;;;4918179;29;20873;-77
2022/01/15 15:15:26;;;;;;;0.40;0.30;;;4.30;99.90;;;;;;4917423;29;20799;-77
2022/01/15 15:17:54;;;;;;;2.67;0.70;;;4.30;99.90;;;;;;4917553;29;20783;-77
2022/01/15 15:20:21;;;;;;;0.40;0.30;;;4.20;99.90;;;;;;4917174;29;20527;-77